Terminal Aerodrome Forecast
Issued by NWS Brownsville, TX

Home | Current Version | Previous Version | Text Only | Print | Product List | Glossary On
Versions: 1 2 3 4 5 6 7 8 9 10 11 12 13 14 15 16
096
FTUS44 KBRO 290528
TAFMFE
TAF
KMFE 290528Z 2906/3006 16008KT P6SM FEW015
     FM291400 14015G22KT P6SM SCT050
     FM300200 14012KT P6SM SCT030=

USA.gov is the U.S. government's official web portal to all federal, state and local government web resources and services.